createdAt,value
2023-01-21T00:00:42.310Z,45.06
2023-01-21T00:01:41.472Z,56.23
2023-01-21T00:02:41.379Z,53.12
2023-01-21T00:03:41.530Z,64.15
2023-01-21T00:04:41.327Z,45.84
2023-01-21T00:05:41.306Z,53.42
2023-01-21T00:06:41.335Z,50.65
2023-01-21T00:07:41.313Z,51.57
2023-01-21T00:08:42.342Z,59.29
2023-01-21T00:09:42.305Z,59.08
2023-01-21T00:10:41.311Z,51.01
2023-01-21T00:11:41.317Z,50.16
2023-01-21T00:12:41.302Z,58.45
2023-01-21T00:13:41.300Z,51.76
2023-01-21T00:14:41.316Z,60.99
2023-01-21T00:15:41.268Z,46.92
2023-01-21T00:16:41.308Z,55.27
2023-01-21T00:17:41.322Z,46.42
2023-01-21T00:18:41.272Z,45.06
2023-01-21T00:19:41.234Z,54.77
2023-01-21T00:20:41.217Z,59.84
2023-01-21T00:21:41.207Z,57.33
2023-01-21T00:22:41.185Z,51.00
2023-01-21T00:23:41.244Z,44.95
2023-01-21T00:24:41.196Z,55.37
2023-01-21T00:25:41.189Z,50.58
2023-01-21T00:26:41.182Z,45.95
2023-01-21T00:27:41.282Z,45.90
2023-01-21T00:28:41.136Z,50.55
2023-01-21T00:29:41.157Z,44.67
2023-01-21T00:30:41.244Z,45.89
2023-01-21T00:31:41.269Z,51.96
2023-01-21T00:32:41.129Z,59.60
2023-01-21T00:33:41.155Z,47.43
2023-01-21T00:34:41.158Z,56.51
2023-01-21T00:35:41.128Z,50.94
2023-01-21T00:36:41.089Z,50.14
2023-01-21T00:37:41.075Z,52.09
2023-01-21T00:38:41.088Z,46.02
2023-01-21T00:39:41.098Z,51.17
2023-01-21T00:40:41.110Z,45.70
2023-01-21T00:41:41.104Z,45.44
2023-01-21T00:42:41.072Z,46.86
2023-01-21T00:43:41.087Z,45.87
2023-01-21T00:44:41.083Z,46.04
2023-01-21T00:45:41.095Z,46.98
2023-01-21T00:46:41.074Z,51.04
2023-01-21T00:47:41.062Z,46.59
2023-01-21T00:48:41.036Z,57.16
2023-01-21T00:49:41.012Z,46.81
2023-01-21T00:50:41.032Z,56.60
2023-01-21T00:51:41.079Z,57.56
2023-01-21T00:52:41.062Z,51.89
2023-01-21T00:53:40.961Z,53.20
2023-01-21T00:54:40.950Z,52.39
2023-01-21T00:55:40.983Z,52.61
2023-01-21T00:56:41.012Z,56.61
2023-01-21T00:57:40.973Z,54.55
2023-01-21T00:58:40.984Z,47.46
2023-01-21T00:59:41.043Z,49.03
2023-01-21T01:00:40.957Z,52.33
2023-01-21T01:01:41.318Z,56.07
2023-01-21T01:02:40.988Z,52.01
2023-01-21T01:03:40.974Z,46.86
2023-01-21T01:04:40.912Z,52.04
2023-01-21T01:05:40.921Z,57.63
2023-01-21T01:06:40.903Z,54.16
2023-01-21T01:07:40.959Z,47.09
2023-01-21T01:08:40.875Z,54.06
2023-01-21T01:09:40.848Z,59.40
2023-01-21T01:10:40.855Z,57.02
2023-01-21T01:11:40.874Z,52.45
2023-01-21T01:12:40.870Z,50.65
2023-01-21T01:13:40.944Z,58.79
2023-01-21T01:14:40.822Z,52.35
2023-01-21T01:15:40.886Z,49.58
2023-01-21T01:16:40.809Z,55.97
2023-01-21T01:17:40.973Z,57.95
2023-01-21T01:18:40.777Z,50.26
2023-01-21T01:19:41.640Z,58.31
2023-01-21T01:20:40.780Z,45.09
2023-01-21T01:21:40.785Z,48.54
2023-01-21T01:22:40.815Z,48.27
2023-01-21T01:23:40.818Z,54.27
2023-01-21T01:24:40.754Z,46.14
2023-01-21T01:25:40.739Z,45.61
2023-01-21T01:26:42.270Z,58.09
2023-01-21T01:27:41.740Z,54.74
2023-01-21T01:28:40.715Z,54.82
2023-01-21T01:29:40.746Z,49.23
2023-01-21T01:30:40.723Z,50.27
2023-01-21T01:31:40.737Z,51.89
2023-01-21T01:32:40.710Z,44.53
2023-01-21T01:33:40.713Z,44.29
2023-01-21T01:34:40.717Z,53.01
2023-01-21T01:35:40.659Z,58.48
2023-01-21T01:36:40.787Z,45.87
2023-01-21T01:37:40.680Z,44.55
2023-01-21T01:38:40.651Z,45.39
2023-01-21T01:39:40.673Z,49.58
2023-01-21T01:40:40.648Z,49.22
2023-01-21T01:41:40.765Z,51.39
2023-01-21T01:42:40.672Z,44.98
2023-01-21T01:43:40.614Z,54.82
2023-01-21T01:44:40.674Z,46.89
2023-01-21T01:45:40.644Z,50.01
2023-01-21T01:46:40.614Z,45.49
2023-01-21T01:47:40.612Z,58.30
2023-01-21T01:48:40.646Z,47.91
2023-01-21T01:49:40.599Z,47.08
2023-01-21T01:50:40.586Z,45.74
2023-01-21T01:51:40.552Z,50.96
2023-01-21T01:52:40.608Z,51.50
2023-01-21T01:53:40.532Z,45.69
2023-01-21T01:54:40.522Z,44.79
2023-01-21T01:55:40.555Z,49.82
2023-01-21T01:56:40.523Z,49.95
2023-01-21T01:57:40.500Z,54.96
2023-01-21T01:58:40.497Z,46.51
2023-01-21T01:59:40.506Z,54.79
2023-01-21T02:00:40.483Z,46.98
2023-01-21T02:01:41.182Z,51.33
2023-01-21T02:02:40.666Z,49.85
2023-01-21T02:03:40.463Z,45.81
2023-01-21T02:04:40.466Z,45.85
2023-01-21T02:05:40.513Z,44.98
2023-01-21T02:06:40.504Z,45.77
2023-01-21T02:07:40.484Z,52.60
2023-01-21T02:08:40.433Z,45.52
2023-01-21T02:09:40.438Z,43.71
2023-01-21T02:10:40.410Z,44.99
2023-01-21T02:11:40.397Z,50.40
2023-01-21T02:12:40.405Z,52.44
2023-01-21T02:13:40.419Z,52.30
2023-01-21T02:14:40.371Z,51.25
2023-01-21T02:15:40.404Z,52.82
2023-01-21T02:16:40.362Z,46.06
2023-01-21T02:17:40.376Z,50.76
2023-01-21T02:18:40.373Z,50.99
2023-01-21T02:19:40.374Z,50.99
2023-01-21T02:20:40.347Z,46.15
2023-01-21T02:21:40.360Z,44.36
2023-01-21T02:22:40.326Z,51.09
2023-01-21T02:23:40.345Z,44.56
2023-01-21T02:24:40.340Z,47.14
2023-01-21T02:25:40.321Z,46.62
2023-01-21T02:26:40.285Z,51.41
2023-01-21T02:27:40.300Z,61.34
2023-01-21T02:28:40.307Z,49.52
2023-01-21T02:29:40.339Z,45.89
2023-01-21T02:30:40.324Z,48.08
2023-01-21T02:31:41.236Z,45.16
2023-01-21T02:32:40.238Z,44.36
2023-01-21T02:33:40.261Z,44.92
2023-01-21T02:34:40.271Z,44.98
2023-01-21T02:36:12.150Z,44.97
2023-01-21T02:36:40.222Z,52.54
2023-01-21T02:37:40.207Z,47.36
2023-01-21T02:38:40.221Z,45.81
2023-01-21T02:39:40.213Z,47.18
2023-01-21T02:40:40.274Z,54.49
2023-01-21T02:41:40.186Z,46.69
2023-01-21T02:42:40.173Z,53.77
2023-01-21T02:43:40.182Z,55.39
2023-01-21T02:44:40.151Z,44.72
2023-01-21T02:45:40.196Z,50.94
2023-01-21T02:46:40.175Z,54.41
2023-01-21T02:47:40.161Z,50.69
2023-01-21T02:48:40.126Z,45.45
2023-01-21T02:49:40.134Z,50.78
2023-01-21T02:50:40.167Z,50.73
2023-01-21T02:51:40.116Z,45.29
2023-01-21T02:52:40.106Z,49.68
2023-01-21T02:53:40.105Z,50.10
2023-01-21T02:54:40.143Z,49.68
2023-01-21T02:55:42.005Z,43.60
2023-01-21T02:56:40.102Z,44.21
2023-01-21T02:57:40.067Z,44.85
2023-01-21T02:58:40.096Z,50.89
2023-01-21T02:59:40.039Z,50.90
2023-01-21T03:00:40.073Z,44.11
2023-01-21T03:01:40.084Z,53.62
2023-01-21T03:02:40.694Z,45.25
2023-01-21T03:03:41.419Z,54.70
2023-01-21T03:04:41.012Z,46.08
2023-01-21T03:05:40.021Z,45.55
2023-01-21T03:06:39.994Z,45.45
2023-01-21T03:07:40.015Z,54.71
2023-01-21T03:08:39.985Z,46.41
2023-01-21T03:09:40.000Z,44.99
2023-01-21T03:10:39.992Z,44.44
2023-01-21T03:11:39.951Z,51.90
2023-01-21T03:12:39.975Z,44.29
2023-01-21T03:13:39.989Z,43.84
2023-01-21T03:14:39.956Z,50.68
2023-01-21T03:15:39.933Z,54.74
2023-01-21T03:16:39.991Z,47.40
2023-01-21T03:17:39.929Z,44.81
2023-01-21T03:18:39.924Z,44.63
2023-01-21T03:19:39.932Z,50.54
2023-01-21T03:20:39.895Z,45.06
2023-01-21T03:21:39.882Z,48.77
2023-01-21T03:22:39.872Z,50.27
2023-01-21T03:23:39.885Z,48.46
2023-01-21T03:24:40.704Z,45.94
2023-01-21T03:25:39.887Z,45.32
2023-01-21T03:26:39.855Z,45.25
2023-01-21T03:27:39.862Z,45.50
2023-01-21T03:28:39.880Z,51.53
2023-01-21T03:29:39.827Z,45.92
2023-01-21T03:30:39.875Z,56.11
2023-01-21T03:31:39.875Z,46.07
2023-01-21T03:32:39.808Z,50.83
2023-01-21T03:33:39.812Z,46.22
2023-01-21T03:34:39.788Z,46.13
2023-01-21T03:35:39.827Z,47.30
2023-01-21T03:36:39.788Z,51.68
2023-01-21T03:37:39.776Z,45.71
2023-01-21T03:38:39.763Z,45.01
2023-01-21T03:39:39.812Z,45.94
2023-01-21T03:40:40.125Z,45.19
2023-01-21T03:41:39.781Z,46.10
2023-01-21T03:42:39.748Z,46.13
2023-01-21T03:43:39.746Z,46.25
2023-01-21T03:44:39.716Z,45.97
2023-01-21T03:45:39.757Z,46.07
2023-01-21T03:46:39.741Z,52.17
2023-01-21T04:03:53.726Z,48.97
2023-01-21T04:04:53.701Z,47.03
2023-01-21T04:05:53.707Z,53.46
2023-01-21T04:06:54.812Z,48.00
2023-01-21T04:07:54.857Z,51.27
2023-01-21T04:08:54.888Z,50.38
2023-01-21T04:09:54.815Z,53.78
2023-01-21T04:10:54.807Z,51.17
2023-01-21T04:11:54.805Z,45.95
2023-01-21T04:12:54.780Z,51.28
2023-01-21T04:13:54.782Z,52.71
2023-01-21T04:14:54.765Z,53.11
2023-01-21T04:15:54.747Z,47.23
2023-01-21T04:16:54.739Z,59.17
2023-01-21T04:17:54.773Z,54.50
2023-01-21T04:18:54.744Z,47.66
2023-01-21T04:19:54.728Z,59.52
2023-01-21T04:20:54.741Z,56.34
2023-01-21T04:21:55.462Z,61.47
2023-01-21T04:22:54.700Z,47.40
2023-01-21T04:23:54.712Z,61.01
2023-01-21T04:24:54.682Z,57.64
2023-01-21T04:25:54.714Z,48.79
2023-01-21T04:26:54.688Z,58.48
2023-01-21T04:27:54.676Z,54.06
2023-01-21T04:28:54.668Z,53.93
2023-01-21T04:29:54.679Z,57.52
2023-01-21T04:30:54.716Z,59.62
2023-01-21T04:31:54.895Z,54.89
2023-01-21T04:32:54.634Z,46.46
2023-01-21T04:33:54.623Z,50.73
2023-01-21T04:34:54.652Z,63.75
2023-01-21T04:35:55.298Z,58.07
2023-01-21T04:36:55.621Z,57.30
2023-01-21T04:37:55.270Z,58.53
2023-01-21T04:38:54.576Z,56.47
2023-01-21T04:39:54.605Z,59.24
2023-01-21T04:40:54.578Z,58.74
2023-01-21T04:41:54.585Z,61.37
2023-01-21T04:42:54.589Z,55.83
2023-01-21T04:43:54.570Z,59.82
2023-01-21T04:44:54.539Z,56.85
2023-01-21T04:45:54.585Z,57.51
2023-01-21T04:46:54.575Z,52.83
2023-01-21T04:47:54.642Z,60.61
2023-01-21T04:48:54.549Z,56.20
2023-01-21T04:49:54.517Z,50.40
2023-01-21T04:50:54.551Z,51.17
2023-01-21T04:51:54.523Z,53.52
2023-01-21T04:52:54.510Z,58.14
2023-01-21T04:53:54.475Z,52.01
2023-01-21T04:54:54.476Z,53.55
2023-01-21T04:55:54.443Z,55.88
2023-01-21T04:56:54.475Z,51.13
2023-01-21T04:57:54.459Z,59.60
2023-01-21T04:58:55.452Z,55.85
2023-01-21T04:59:54.429Z,53.65
2023-01-21T05:00:54.463Z,55.26
2023-01-21T05:01:54.412Z,53.66
2023-01-21T05:02:54.462Z,47.26
2023-01-21T05:03:54.414Z,64.96
2023-01-21T05:04:54.444Z,59.95
2023-01-21T05:05:54.409Z,55.00
2023-01-21T05:06:54.928Z,52.25
2023-01-21T05:07:54.400Z,52.67
2023-01-21T05:08:54.365Z,58.85
2023-01-21T05:09:54.405Z,53.98
2023-01-21T05:10:54.343Z,57.73
2023-01-21T05:11:54.368Z,53.12
2023-01-21T05:12:54.348Z,57.73
2023-01-21T05:13:54.339Z,47.23
2023-01-21T05:14:54.343Z,56.33
2023-01-21T05:15:54.385Z,51.03
2023-01-21T05:16:54.383Z,51.57
2023-01-21T05:17:54.314Z,59.70
2023-01-21T05:18:54.304Z,57.41
2023-01-21T05:19:54.339Z,54.33
2023-01-21T05:20:54.282Z,56.97
2023-01-21T05:21:54.310Z,48.18
2023-01-21T05:22:54.254Z,51.22
2023-01-21T05:23:54.234Z,56.37
2023-01-21T05:24:54.368Z,55.60
2023-01-21T05:25:54.253Z,48.05
2023-01-21T05:26:54.237Z,54.57
2023-01-21T05:27:54.229Z,53.19
2023-01-21T05:28:54.213Z,53.08
2023-01-21T05:29:54.212Z,60.36
2023-01-21T05:30:54.364Z,52.72
2023-01-21T05:31:54.240Z,60.03
2023-01-21T05:32:54.186Z,55.93
2023-01-21T05:33:54.178Z,54.31
2023-01-21T05:34:54.212Z,46.63
2023-01-21T05:35:54.175Z,52.31
2023-01-21T05:36:54.159Z,66.56
2023-01-21T05:37:54.148Z,50.23
2023-01-21T05:38:54.158Z,52.22
2023-01-21T05:39:54.125Z,59.02
2023-01-21T05:40:54.142Z,60.97
2023-01-21T05:41:54.148Z,60.09
2023-01-21T05:42:54.117Z,48.01
2023-01-21T05:43:54.929Z,58.46
2023-01-21T05:44:54.097Z,56.11
2023-01-21T05:45:54.171Z,54.79
2023-01-21T05:46:54.106Z,60.81
2023-01-21T05:47:54.080Z,54.59
2023-01-21T05:48:54.087Z,45.84
2023-01-21T05:49:54.093Z,54.48
2023-01-21T05:50:54.611Z,59.08
2023-01-21T05:51:54.086Z,56.25
2023-01-21T05:52:54.070Z,52.71
2023-01-21T05:53:54.090Z,49.50
2023-01-21T05:55:01.941Z,46.08
2023-01-21T05:55:56.027Z,51.34
2023-01-21T05:56:54.083Z,57.06
2023-01-21T05:57:54.005Z,61.52
2023-01-21T05:58:54.035Z,49.86
2023-01-21T05:59:53.988Z,50.32
2023-01-21T06:00:53.992Z,56.14
2023-01-21T06:01:53.979Z,50.24
2023-01-21T06:02:53.993Z,63.61
2023-01-21T06:03:54.049Z,53.72
2023-01-21T06:04:54.031Z,49.36
2023-01-21T06:05:53.965Z,49.09
2023-01-21T06:06:53.954Z,51.57
2023-01-21T06:07:53.949Z,57.27
2023-01-21T06:08:53.951Z,59.73
2023-01-21T06:09:53.927Z,48.14
2023-01-21T06:10:53.922Z,53.19
2023-01-21T06:11:53.921Z,57.46
2023-01-21T06:12:53.889Z,53.55
2023-01-21T06:13:53.909Z,59.55
2023-01-21T06:14:53.879Z,51.22
2023-01-21T06:15:53.926Z,60.68
2023-01-21T06:16:53.880Z,61.96
2023-01-21T06:17:53.857Z,57.51
2023-01-21T06:18:53.860Z,56.36
2023-01-21T06:19:53.836Z,49.46
2023-01-21T06:20:53.858Z,55.17
2023-01-21T06:21:53.842Z,65.05
2023-01-21T06:22:53.819Z,59.67
2023-01-21T06:23:53.815Z,55.65
2023-01-21T06:24:53.799Z,60.54
2023-01-21T06:25:53.801Z,57.67
2023-01-21T06:26:53.803Z,60.21
2023-01-21T06:27:53.788Z,62.48
2023-01-21T06:28:53.810Z,48.38
2023-01-21T06:29:54.478Z,54.68
2023-01-21T06:30:53.857Z,48.52
2023-01-21T06:31:53.866Z,58.52
2023-01-21T06:32:53.753Z,61.61
2023-01-21T06:33:53.757Z,63.11
2023-01-21T06:34:53.760Z,54.74
2023-01-21T06:35:53.759Z,46.70
2023-01-21T06:36:53.728Z,60.45
2023-01-21T06:37:53.745Z,47.31
2023-01-21T06:38:53.712Z,57.37
2023-01-21T06:39:53.772Z,56.19
2023-01-21T06:40:53.714Z,56.80
2023-01-21T06:41:55.354Z,47.04
2023-01-21T06:42:54.672Z,65.49
2023-01-21T06:43:53.673Z,47.36
2023-01-21T06:44:53.683Z,62.13
2023-01-21T06:45:54.897Z,59.98
2023-01-21T06:47:00.701Z,57.27
2023-01-21T06:47:55.669Z,65.21
2023-01-21T06:48:53.699Z,65.26
2023-01-21T06:49:53.634Z,59.65
2023-01-21T06:50:54.485Z,57.38
2023-01-21T06:51:53.642Z,57.22
2023-01-21T06:52:53.628Z,58.82
2023-01-21T06:53:53.604Z,62.24
2023-01-21T06:54:53.606Z,58.54
2023-01-21T06:55:53.577Z,63.99
2023-01-21T06:56:53.583Z,49.87
2023-01-21T06:57:53.592Z,55.34
2023-01-21T06:58:53.564Z,61.90
2023-01-21T06:59:53.567Z,49.39
2023-01-21T07:00:53.595Z,53.60
2023-01-21T07:01:53.619Z,56.36
2023-01-21T07:02:53.635Z,57.49
2023-01-21T07:03:53.604Z,64.66
2023-01-21T07:04:53.534Z,55.89
2023-01-21T07:05:53.537Z,61.52
2023-01-21T07:06:53.500Z,57.95
2023-01-21T07:07:53.515Z,61.09
2023-01-21T07:08:53.520Z,61.00
2023-01-21T07:09:53.534Z,59.01
2023-01-21T07:10:53.515Z,63.87
2023-01-21T07:11:53.496Z,61.30
2023-01-21T07:12:53.455Z,56.59
2023-01-21T07:13:53.472Z,49.19
2023-01-21T07:14:53.447Z,57.02
2023-01-21T07:15:54.448Z,57.67
2023-01-21T07:16:53.433Z,55.16
2023-01-21T07:17:53.477Z,50.68
2023-01-21T07:18:53.458Z,65.03
2023-01-21T07:19:53.475Z,55.92
2023-01-21T07:20:53.436Z,66.16
2023-01-21T07:21:53.398Z,62.99
2023-01-21T07:22:53.443Z,64.06
2023-01-21T07:23:53.385Z,57.19
2023-01-21T07:24:53.387Z,62.97
2023-01-21T07:25:53.384Z,62.75
2023-01-21T07:26:53.370Z,57.83
2023-01-21T07:27:54.356Z,61.10
2023-01-21T07:28:53.350Z,61.90
2023-01-21T07:29:53.378Z,60.12
2023-01-21T07:30:53.326Z,61.66
2023-01-21T07:31:53.452Z,64.56
2023-01-21T07:32:53.346Z,65.89
2023-01-21T07:33:53.316Z,54.94
2023-01-21T07:34:53.319Z,65.08
2023-01-21T07:35:53.311Z,62.33
2023-01-21T07:36:53.306Z,60.47
2023-01-21T07:37:53.313Z,50.74
2023-01-21T07:38:53.272Z,57.37
2023-01-21T07:39:54.705Z,68.64
2023-01-21T07:40:54.336Z,66.25
2023-01-21T07:41:53.845Z,62.40
2023-01-21T07:42:53.258Z,64.56
2023-01-21T07:43:53.250Z,68.08
2023-01-21T07:44:53.252Z,67.84
2023-01-21T07:45:53.228Z,66.58
2023-01-21T07:46:53.287Z,67.09
2023-01-21T07:47:53.242Z,65.61
2023-01-21T07:48:53.211Z,62.87
2023-01-21T07:49:53.242Z,67.19
2023-01-21T07:50:53.205Z,65.95
2023-01-21T07:51:53.214Z,69.89
2023-01-21T07:52:53.204Z,65.23
2023-01-21T07:53:53.185Z,66.09
2023-01-21T07:54:53.169Z,64.69
2023-01-21T07:55:53.161Z,56.27
2023-01-21T07:56:53.180Z,65.58
2023-01-21T07:57:53.165Z,65.95
2023-01-21T07:58:53.198Z,59.39
2023-01-21T07:59:53.147Z,66.09
2023-01-21T08:00:53.137Z,65.17
2023-01-21T08:01:53.254Z,64.91
2023-01-21T08:02:54.857Z,65.27
2023-01-21T08:03:53.122Z,61.40
2023-01-21T08:04:53.845Z,65.19
2023-01-21T08:05:53.118Z,65.17
2023-01-21T08:06:53.088Z,62.58
2023-01-21T08:07:53.077Z,64.58
2023-01-21T08:08:53.087Z,68.66
2023-01-21T08:09:53.068Z,58.31
2023-01-21T08:10:53.045Z,69.58
2023-01-21T08:11:53.037Z,62.57
2023-01-21T08:12:53.026Z,59.71
2023-01-21T08:13:53.040Z,58.39
2023-01-21T08:14:53.011Z,59.67
2023-01-21T08:15:53.080Z,63.15
2023-01-21T08:16:52.999Z,60.90
2023-01-21T08:17:53.008Z,64.00
2023-01-21T08:18:53.008Z,65.82
2023-01-21T08:19:52.999Z,62.24
2023-01-21T08:20:53.002Z,62.08
2023-01-21T08:21:52.984Z,65.48
2023-01-21T08:22:52.945Z,59.60
2023-01-21T08:23:52.945Z,64.09
2023-01-21T08:24:52.965Z,67.31
2023-01-21T08:25:52.955Z,63.82
2023-01-21T08:26:52.939Z,63.95
2023-01-21T08:27:53.792Z,63.17
2023-01-21T08:28:52.922Z,65.22
2023-01-21T08:29:52.920Z,66.27
2023-01-21T08:30:52.927Z,68.35
2023-01-21T08:31:52.940Z,63.54
2023-01-21T08:32:52.901Z,69.25
2023-01-21T08:33:52.916Z,71.74
2023-01-21T08:34:52.865Z,56.98
2023-01-21T08:36:24.815Z,62.21
2023-01-21T08:36:52.873Z,60.66
2023-01-21T08:37:52.849Z,66.32
2023-01-21T08:38:52.837Z,69.96
2023-01-21T08:39:52.839Z,61.51
2023-01-21T08:40:52.836Z,55.98
2023-01-21T08:41:52.869Z,69.09
2023-01-21T08:42:52.799Z,62.37
2023-01-21T08:43:53.372Z,67.49
2023-01-21T08:44:52.802Z,68.51
2023-01-21T08:45:52.849Z,63.68
2023-01-21T08:46:52.796Z,63.54
2023-01-21T08:47:52.784Z,65.91
2023-01-21T08:49:24.685Z,70.16
2023-01-21T08:49:52.766Z,65.04
2023-01-21T08:50:52.852Z,56.86
2023-01-21T08:51:52.776Z,64.15
2023-01-21T08:52:52.760Z,61.40
2023-01-21T08:53:52.758Z,68.38
2023-01-21T08:54:52.717Z,71.17
2023-01-21T08:55:52.719Z,67.34
2023-01-21T08:56:52.704Z,71.72
2023-01-21T08:57:52.705Z,66.04
2023-01-21T08:58:52.721Z,64.51
2023-01-21T08:59:52.709Z,63.99
2023-01-21T09:00:52.713Z,65.82
2023-01-21T09:01:52.708Z,69.69
2023-01-21T09:02:52.653Z,65.73
2023-01-21T09:03:52.655Z,67.74
2023-01-21T09:04:52.639Z,67.48
2023-01-21T09:05:52.638Z,66.65
2023-01-21T09:06:52.649Z,69.08
2023-01-21T09:07:52.638Z,60.24
2023-01-21T09:08:52.659Z,67.61
2023-01-21T09:09:53.321Z,66.96
2023-01-21T09:10:52.617Z,68.70
2023-01-21T09:11:52.602Z,68.07
2023-01-21T09:12:52.612Z,63.12
2023-01-21T09:13:52.624Z,64.93
2023-01-21T09:14:52.587Z,68.61
2023-01-21T09:15:52.605Z,69.59
2023-01-21T09:16:52.603Z,68.02
2023-01-21T09:17:52.584Z,69.19
2023-01-21T09:18:52.585Z,67.76
2023-01-21T09:19:54.082Z,66.99
2023-01-21T09:20:52.531Z,70.91
2023-01-21T09:21:52.532Z,69.51
2023-01-21T09:22:52.520Z,67.10
2023-01-21T09:23:52.530Z,70.22
2023-01-21T09:24:52.508Z,65.93
2023-01-21T09:25:53.518Z,65.37
2023-01-21T09:26:52.509Z,66.13
2023-01-21T09:27:52.533Z,64.49
2023-01-21T09:28:52.468Z,69.74
2023-01-21T09:29:52.484Z,67.21
2023-01-21T09:30:52.499Z,64.85
2023-01-21T09:31:52.527Z,69.57
2023-01-21T09:32:52.486Z,65.48
2023-01-21T09:33:52.425Z,67.59
2023-01-21T09:34:52.446Z,64.11
2023-01-21T09:35:52.431Z,61.95
2023-01-21T09:36:52.455Z,67.05
2023-01-21T09:37:52.404Z,66.33
2023-01-21T09:38:52.424Z,68.08
2023-01-21T09:39:52.386Z,65.06
2023-01-21T09:40:52.429Z,63.96
2023-01-21T09:41:52.390Z,70.18
2023-01-21T09:42:52.371Z,68.71
2023-01-21T09:43:52.366Z,64.67
2023-01-21T09:44:52.392Z,68.62
2023-01-21T09:45:52.361Z,67.11
2023-01-21T09:46:52.378Z,66.80
2023-01-21T09:47:52.342Z,63.94
2023-01-21T09:48:52.343Z,62.07
2023-01-21T09:49:52.323Z,64.71
2023-01-21T09:50:52.341Z,69.05
2023-01-21T09:51:52.808Z,67.47
2023-01-21T09:52:53.329Z,63.21
2023-01-21T09:53:52.301Z,68.65
2023-01-21T09:54:52.279Z,64.71
2023-01-21T09:55:52.286Z,64.12
2023-01-21T09:56:52.302Z,69.97
2023-01-21T09:57:52.288Z,67.46
2023-01-21T09:58:52.290Z,63.91
2023-01-21T09:59:52.257Z,55.25
2023-01-21T10:00:52.380Z,65.35
2023-01-21T10:01:52.311Z,68.37
2023-01-21T10:02:52.236Z,65.26
2023-01-21T10:03:52.216Z,65.93
2023-01-21T10:04:52.279Z,70.73
2023-01-21T10:05:52.191Z,67.52
2023-01-21T10:06:53.200Z,65.91
2023-01-21T10:07:52.209Z,66.73
2023-01-21T10:08:52.182Z,66.65
2023-01-21T10:09:52.187Z,67.72
2023-01-21T10:10:52.175Z,61.63
2023-01-21T10:11:52.160Z,64.74
2023-01-21T10:12:52.143Z,66.45
2023-01-21T10:13:53.184Z,68.36
2023-01-21T10:14:53.182Z,66.69
2023-01-21T10:15:52.144Z,67.43
2023-01-21T10:16:52.153Z,66.58
2023-01-21T10:17:52.163Z,64.19
2023-01-21T10:18:52.095Z,66.06
2023-01-21T10:19:52.121Z,68.60
2023-01-21T10:20:52.095Z,65.86
2023-01-21T10:21:52.089Z,68.98
2023-01-21T10:22:52.089Z,69.30
2023-01-21T10:23:52.868Z,68.79
2023-01-21T10:24:52.099Z,68.35
2023-01-21T10:25:52.062Z,61.38
2023-01-21T10:26:52.048Z,66.44
2023-01-21T10:27:52.038Z,67.28
2023-01-21T10:28:52.027Z,66.32
2023-01-21T10:29:52.037Z,69.04
2023-01-21T10:30:52.073Z,66.74
2023-01-21T10:31:52.195Z,70.21
2023-01-21T10:32:52.092Z,69.46
2023-01-21T10:33:51.993Z,72.17
2023-01-21T10:34:51.982Z,65.34
2023-01-21T10:35:52.054Z,68.07
2023-01-21T10:36:51.979Z,69.13
2023-01-21T10:37:51.985Z,65.77
2023-01-21T10:38:51.965Z,68.00
2023-01-21T10:39:51.969Z,68.22
2023-01-21T10:40:51.960Z,65.95
2023-01-21T10:41:51.947Z,54.57
2023-01-21T10:42:51.920Z,64.49
2023-01-21T10:43:51.929Z,69.22
2023-01-21T10:44:51.922Z,69.41
2023-01-21T10:45:51.987Z,70.73
2023-01-21T10:46:51.902Z,69.01
2023-01-21T10:47:51.874Z,65.70
2023-01-21T10:48:51.874Z,69.95
2023-01-21T10:49:51.889Z,66.51
2023-01-21T10:50:51.904Z,64.50
2023-01-21T10:51:51.879Z,67.27
2023-01-21T10:52:51.848Z,65.92
2023-01-21T10:53:51.882Z,69.88
2023-01-21T10:54:51.828Z,67.03
2023-01-21T10:55:51.834Z,68.68
2023-01-21T10:56:51.814Z,66.18
2023-01-21T10:57:51.843Z,67.39
2023-01-21T10:58:51.802Z,67.00
2023-01-21T10:59:51.823Z,70.01
2023-01-21T11:00:51.810Z,63.25
2023-01-21T11:01:51.777Z,60.68
2023-01-21T11:02:51.813Z,72.19
2023-01-21T11:03:51.767Z,68.11
2023-01-21T11:04:51.774Z,62.82
2023-01-21T11:05:52.795Z,66.06
2023-01-21T11:06:51.794Z,68.41
2023-01-21T11:07:51.759Z,63.31
2023-01-21T11:08:51.790Z,68.96
2023-01-21T11:09:51.738Z,65.01
2023-01-21T11:10:51.723Z,72.39
2023-01-21T11:11:51.716Z,69.42
2023-01-21T11:12:51.716Z,65.52
2023-01-21T11:13:51.701Z,68.64
2023-01-21T11:14:51.694Z,65.97
2023-01-21T11:15:51.734Z,67.69
2023-01-21T11:16:51.707Z,67.68
2023-01-21T11:17:51.662Z,61.18
2023-01-21T11:18:51.732Z,68.98
2023-01-21T11:19:51.674Z,67.89
2023-01-21T11:20:51.656Z,66.10
2023-01-21T11:21:51.637Z,65.87
2023-01-21T11:22:51.651Z,69.18
2023-01-21T11:23:51.620Z,61.06
2023-01-21T11:24:51.632Z,63.74
2023-01-21T11:25:51.609Z,69.77
2023-01-21T11:26:51.586Z,66.06
2023-01-21T11:27:51.577Z,57.00
2023-01-21T11:28:51.604Z,67.12
2023-01-21T11:29:51.592Z,61.80
2023-01-21T11:30:52.006Z,67.09
2023-01-21T11:31:53.609Z,67.74
2023-01-21T11:32:51.552Z,68.61
2023-01-21T11:33:51.556Z,68.13
2023-01-21T11:34:51.621Z,68.61
2023-01-21T11:35:51.520Z,65.80
2023-01-21T11:36:51.572Z,69.17
2023-01-21T11:37:51.515Z,63.53
2023-01-21T11:38:51.524Z,69.84
2023-01-21T11:39:51.522Z,58.74
2023-01-21T11:40:51.529Z,64.89
2023-01-21T11:41:51.492Z,68.55
2023-01-21T11:42:51.478Z,62.95
2023-01-21T11:43:51.501Z,71.04
2023-01-21T11:44:51.504Z,67.79
2023-01-21T11:45:51.494Z,69.76
2023-01-21T11:46:51.457Z,65.82
2023-01-21T11:47:52.511Z,63.80
2023-01-21T11:48:51.428Z,67.22
2023-01-21T11:49:51.435Z,62.76
2023-01-21T11:50:51.497Z,67.55
2023-01-21T11:51:51.404Z,68.24
2023-01-21T11:52:51.424Z,67.28
2023-01-21T11:53:51.394Z,64.75
2023-01-21T11:54:51.393Z,66.25
2023-01-21T11:55:51.395Z,66.07
2023-01-21T11:56:51.375Z,62.01
2023-01-21T11:57:51.371Z,63.70
2023-01-21T11:58:51.364Z,63.77
2023-01-21T11:59:51.358Z,64.67
2023-01-21T12:00:51.379Z,64.57
2023-01-21T12:01:51.333Z,63.53
2023-01-21T12:02:51.346Z,65.60
2023-01-21T12:03:51.354Z,68.29
2023-01-21T12:04:51.318Z,65.95
2023-01-21T12:05:51.354Z,66.73
2023-01-21T12:06:51.997Z,67.78
2023-01-21T12:07:51.932Z,62.72
2023-01-21T12:08:51.281Z,64.27
2023-01-21T12:09:51.272Z,68.58
2023-01-21T12:10:51.317Z,67.06
2023-01-21T12:11:51.279Z,64.18
2023-01-21T12:12:51.321Z,58.68
2023-01-21T12:13:51.246Z,68.59
2023-01-21T12:14:51.235Z,63.62
2023-01-21T12:15:51.278Z,64.04
2023-01-21T12:16:51.234Z,66.14
2023-01-21T12:17:51.247Z,61.67
2023-01-21T12:18:51.211Z,69.99
2023-01-21T12:19:51.197Z,66.80
2023-01-21T12:20:51.189Z,67.57
2023-01-21T12:21:51.185Z,62.19
2023-01-21T12:22:51.186Z,64.70
2023-01-21T12:23:51.260Z,69.18
2023-01-21T12:24:51.177Z,66.76
2023-01-21T12:25:51.161Z,63.77
2023-01-21T12:26:51.143Z,67.04
2023-01-21T12:27:51.139Z,69.05
2023-01-21T12:28:51.135Z,67.58
2023-01-21T12:29:51.110Z,68.42
2023-01-21T12:30:51.143Z,67.77
2023-01-21T12:31:51.164Z,70.73
2023-01-21T12:32:51.096Z,65.47
2023-01-21T12:33:51.168Z,64.12
2023-01-21T12:34:51.102Z,70.50
2023-01-21T12:35:51.085Z,66.02
2023-01-21T12:36:51.075Z,68.13
2023-01-21T12:37:51.062Z,66.98
2023-01-21T12:38:51.077Z,68.54
2023-01-21T12:39:51.056Z,65.14
2023-01-21T12:40:51.051Z,70.53
2023-01-21T12:41:51.036Z,69.38
2023-01-21T12:42:51.034Z,62.32
2023-01-21T12:43:51.021Z,70.63
2023-01-21T12:44:51.017Z,65.53
2023-01-21T12:45:51.011Z,65.67
2023-01-21T12:46:51.096Z,70.21
2023-01-21T12:47:50.996Z,66.94
2023-01-21T12:48:50.995Z,63.24
2023-01-21T12:49:50.977Z,67.82
2023-01-21T12:50:51.040Z,66.87
2023-01-21T12:51:50.952Z,66.49
2023-01-21T12:52:50.962Z,62.63
2023-01-21T12:53:51.843Z,68.38
2023-01-21T12:54:50.939Z,58.55
2023-01-21T12:55:50.950Z,68.06
2023-01-21T12:56:50.933Z,68.74
2023-01-21T12:57:50.903Z,66.53
2023-01-21T12:58:50.911Z,63.22
2023-01-21T12:59:50.918Z,70.67
2023-01-21T13:00:50.939Z,66.34
2023-01-21T13:01:50.928Z,65.77
2023-01-21T13:02:50.880Z,62.98
2023-01-21T13:03:51.840Z,67.32
2023-01-21T13:04:50.850Z,66.63
2023-01-21T13:05:50.850Z,58.96
2023-01-21T13:06:54.349Z,65.30
2023-01-21T13:07:51.829Z,67.29
2023-01-21T13:08:51.062Z,62.66